Time;durP1;ratioP1;P1;durP2;ratioP2;P2;SDS_P1;SDS_P2;PMS_P1;PMS_P2;Temp;Humidity;BMP_temperature;BMP_pressure;BME280_temperature;BME280_humidity;BME280_pressure;Samples;Min_cycle;Max_cycle;Signal;HPM_P1;HPM_P2
2021/11/21 00:00:12;;;;;;;37.75;20.38;;;;;;;7.88;95.97;100629.38;4988576;28;20072;-86
2021/11/21 00:02:40;;;;;;;37.10;20.88;;;;;;;7.86;96.11;100633.75;5000946;28;20057;-84
2021/11/21 00:05:08;;;;;;;37.20;21.85;;;;;;;7.82;95.99;100631.97;5013714;28;20033;-84
2021/11/21 00:07:35;;;;;;;37.17;22.27;;;;;;;7.85;96.06;100631.13;5000762;28;20049;-82
2021/11/21 00:10:02;;;;;;;36.65;21.55;;;;;;;7.85;96.16;100625.91;4992533;28;20113;-81
2021/11/21 00:12:36;;;;;;;40.30;22.75;;;;;;;7.82;96.06;100626.75;5002741;28;20088;-85
2021/11/21 00:15:05;;;;;;;40.97;21.92;;;;;;;7.81;96.38;100622.44;4990665;28;20504;-77
2021/11/21 00:17:33;;;;;;;38.30;20.60;;;;;;;7.80;96.23;100612.03;4969151;28;20064;-80
2021/11/21 00:20:02;;;;;;;38.60;22.67;;;;;;;7.81;95.94;100614.63;4982604;28;20066;-81
2021/11/21 00:22:34;;;;;;;39.75;22.42;;;;;;;7.81;96.08;100614.63;4981894;23;20065;-81
2021/11/21 00:25:01;;;;;;;34.78;21.08;;;;;;;7.80;96.02;100607.66;4972121;28;20047;-82
2021/11/21 00:27:27;;;;;;;37.53;21.25;;;;;;;7.80;96.33;100610.28;4969816;28;20422;-79
2021/11/21 00:29:54;;;;;;;39.25;22.25;;;;;;;7.82;95.98;100595.50;4972898;28;20038;-79
2021/11/21 00:32:22;;;;;;;44.55;25.70;;;;;;;7.83;96.18;100596.38;4970522;28;20062;-79
2021/11/21 00:34:51;;;;;;;38.75;22.60;;;;;;;7.83;95.82;100601.59;4953764;28;20601;-79
2021/11/21 00:37:23;;;;;;;38.15;22.08;;;;;;;7.80;96.39;100599.84;4954141;28;20058;-77
2021/11/21 00:39:58;;;;;;;41.13;22.92;;;;;;;7.81;96.66;100603.31;4962661;28;20046;-79
2021/11/21 00:42:25;;;;;;;45.22;23.38;;;;;;;7.78;96.44;100599.84;4973935;28;20097;-80
2021/11/21 00:44:52;;;;;;;40.58;24.48;;;;;;;7.79;96.65;100598.09;4957839;28;20061;-84
2021/11/21 00:47:19;;;;;;;39.90;22.05;;;;;;;7.76;97.12;100598.97;4958549;28;21368;-79
2021/11/21 00:49:46;;;;;;;40.92;22.13;;;;;;;7.70;97.47;100595.50;4963180;28;20053;-79
2021/11/21 00:52:13;;;;;;;46.85;24.38;;;;;;;7.66;98.41;100592.00;4968153;28;20127;-81
2021/11/21 00:54:52;;;;;;;39.58;22.23;;;;;;;7.62;98.30;100590.25;4975687;28;20097;-80
2021/11/21 00:57:19;;;;;;;38.22;22.02;;;;;;;7.60;98.48;100585.06;4951429;28;20065;-77
2021/11/21 00:59:46;;;;;;;40.38;23.63;;;;;;;7.62;98.28;100582.44;4937642;28;20128;-81
2021/11/21 01:02:17;;;;;;;36.58;21.02;;;;;;;7.66;98.21;100578.97;4957019;28;20467;-78
2021/11/21 01:04:44;;;;;;;39.47;22.63;;;;;;;7.66;98.04;100578.13;4968368;28;20981;-80
2021/11/21 01:07:12;;;;;;;41.95;21.58;;;;;;;7.65;97.72;100579.84;4966287;28;20121;-80
2021/11/21 01:09:40;;;;;;;38.75;20.88;;;;;;;7.67;97.44;100577.25;4955011;28;20476;-80
2021/11/21 01:12:08;;;;;;;43.47;22.65;;;;;;;7.69;97.58;100575.50;4971701;28;20082;-80
2021/11/21 01:14:44;;;;;;;40.40;21.88;;;;;;;7.71;97.15;100574.63;4964074;28;20575;-79
2021/11/21 01:17:11;;;;;;;37.55;21.15;;;;;;;7.72;96.98;100565.97;4962369;28;20838;-85
2021/11/21 01:19:39;;;;;;;37.03;20.70;;;;;;;7.73;96.61;100561.59;4961797;28;20740;-78
2021/11/21 01:22:14;;;;;;;36.65;20.67;;;;;;;7.74;96.51;100564.25;4954783;28;20603;-81
2021/11/21 01:24:41;;;;;;;32.65;18.40;;;;;;;7.76;95.78;100556.41;4987603;28;20052;-83
2021/11/21 01:27:08;;;;;;;32.67;19.05;;;;;;;7.74;96.08;100560.75;4981415;28;20510;-86
2021/11/21 01:29:35;;;;;;;38.63;20.55;;;;;;;7.74;95.85;100545.13;5002768;28;20029;-86
2021/11/21 01:32:04;;;;;;;33.17;19.58;;;;;;;7.71;95.85;100550.34;4985583;28;20042;-80
2021/11/21 01:34:31;;;;;;;33.47;19.70;;;;;;;7.72;95.61;100547.72;4991095;28;20045;-81
2021/11/21 01:36:58;;;;;;;41.40;21.05;;;;;;;7.70;95.96;100557.25;4985079;28;20049;-81
2021/11/21 01:39:26;;;;;;;39.55;21.83;;;;;;;7.70;96.11;100552.06;4983322;28;20876;-81
2021/11/21 01:41:53;;;;;;;34.97;20.33;;;;;;;7.71;95.69;100550.34;4990518;28;20156;-82
2021/11/21 01:44:22;;;;;;;37.13;21.08;;;;;;;7.69;95.95;100547.72;5002132;28;20052;-83
2021/11/21 01:46:51;;;;;;;38.83;21.83;;;;;;;7.69;96.00;100541.63;4984647;28;20057;-83
2021/11/21 01:49:21;;;;;;;38.47;21.25;;;;;;;7.67;95.62;100539.03;4978891;28;20041;-79
2021/11/21 01:51:49;;;;;;;33.83;20.10;;;;;;;7.65;96.18;100524.25;4972496;28;20057;-80
2021/11/21 01:54:19;;;;;;;36.47;22.45;;;;;;;7.64;96.35;100528.63;4988200;28;20799;-81
2021/11/21 01:56:47;;;;;;;36.08;21.20;;;;;;;7.63;95.98;100516.44;4981868;28;20049;-85
2021/11/21 01:59:14;;;;;;;36.60;21.52;;;;;;;7.61;95.78;100507.75;5004593;28;20510;-79
2021/11/21 02:01:40;;;;;;;40.28;22.92;;;;;;;7.62;95.86;100512.09;5003236;28;20585;-82
2021/11/21 02:04:07;;;;;;;36.70;21.35;;;;;;;7.60;95.89;100509.50;5001224;28;20053;-80
2021/11/21 02:06:35;;;;;;;40.55;22.98;;;;;;;7.59;96.46;100517.31;4968933;28;20079;-86
2021/11/21 02:09:06;;;;;;;36.38;21.15;;;;;;;7.60;96.30;100508.63;4983804;28;20053;-83
2021/11/21 02:11:33;;;;;;;35.88;21.17;;;;;;;7.58;96.35;100507.75;4984987;28;20056;-85
2021/11/21 02:14:00;;;;;;;39.13;22.38;;;;;;;7.58;95.83;100493.00;4981760;28;20049;-86
2021/11/21 02:16:31;;;;;;;36.55;20.58;;;;;;;7.58;96.15;100487.78;4985921;28;20051;-78
2021/11/21 02:18:59;;;;;;;36.05;20.02;;;;;;;7.56;96.68;100496.47;4976466;28;20042;-80
2021/11/21 02:21:26;;;;;;;39.38;22.67;;;;;;;7.56;96.78;100491.25;4969829;28;20678;-82
2021/11/21 02:23:59;;;;;;;38.83;22.33;;;;;;;7.56;96.82;100486.94;4982206;28;20060;-83
2021/11/21 02:26:27;;;;;;;34.17;19.75;;;;;;;7.56;96.74;100483.44;4980726;28;20041;-83
2021/11/21 02:28:55;;;;;;;36.55;21.13;;;;;;;7.57;96.44;100482.56;4982554;28;20033;-77
2021/11/21 02:31:22;;;;;;;36.08;20.88;;;;;;;7.56;97.03;100475.63;4980946;28;20056;-82
2021/11/21 02:33:52;;;;;;;34.83;19.88;;;;;;;7.55;97.20;100468.69;4989889;28;20591;-85
2021/11/21 02:36:20;;;;;;;41.38;22.10;;;;;;;7.58;96.85;100461.72;4970755;28;21028;-82
2021/11/21 02:38:47;;;;;;;37.78;20.42;;;;;;;7.53;97.06;100467.81;4981305;28;20123;-85
2021/11/21 02:41:14;;;;;;;37.65;20.10;;;;;;;7.55;97.24;100463.50;4970557;28;20049;-83
2021/11/21 02:43:44;;;;;;;39.13;19.75;;;;;;;7.54;97.28;100454.78;4981391;28;20240;-80
2021/11/21 02:46:11;;;;;;;37.80;21.35;;;;;;;7.56;97.00;100452.19;4981935;28;20064;-82
2021/11/21 02:48:38;;;;;;;38.25;21.25;;;;;;;7.55;97.27;100446.09;4974302;28;20045;-84
2021/11/21 02:51:10;;;;;;;34.30;20.13;;;;;;;7.53;97.40;100449.59;4967543;28;20403;-82
2021/11/21 02:53:44;;;;;;;35.15;19.63;;;;;;;7.56;96.92;100446.97;4987142;28;20060;-78
2021/11/21 02:56:14;;;;;;;35.22;19.25;;;;;;;7.54;96.95;100436.56;4986482;28;20045;-77
2021/11/21 02:58:40;;;;;;;35.22;19.58;;;;;;;7.55;97.26;100437.44;4981103;28;20049;-80
2021/11/21 03:01:21;;;;;;;35.95;19.75;;;;;;;7.55;97.03;100445.25;4987471;28;20052;-85
2021/11/21 03:03:48;;;;;;;35.58;19.83;;;;;;;7.52;97.48;100446.13;4989114;28;20060;-81
2021/11/21 03:06:15;;;;;;;35.83;19.20;;;;;;;7.52;97.59;100435.69;4966835;28;20480;-80
2021/11/21 03:08:43;;;;;;;34.33;19.25;;;;;;;7.51;97.61;100433.97;4981832;28;20054;-77
2021/11/21 03:11:39;;;;;;;34.28;19.10;;;;;;;7.50;97.55;100436.56;4986329;28;20045;-81
2021/11/21 03:14:06;;;;;;;35.92;19.13;;;;;;;7.49;97.96;100427.00;4972874;28;20061;-84
2021/11/21 03:16:33;;;;;;;31.45;19.10;;;;;;;7.47;98.21;100428.72;4990114;28;20048;-80
2021/11/21 03:19:00;;;;;;;32.63;19.40;;;;;;;7.46;98.36;100430.47;4974782;28;20497;-83
2021/11/21 03:21:27;;;;;;;33.97;19.33;;;;;;;7.44;98.35;100429.59;4979125;28;20073;-85
2021/11/21 03:23:54;;;;;;;35.65;21.00;;;;;;;7.47;98.26;100421.81;4990650;28;20060;-86
2021/11/21 03:26:21;;;;;;;36.30;19.60;;;;;;;7.48;97.94;100412.25;5003110;28;20079;-83
2021/11/21 03:28:48;;;;;;;33.22;19.45;;;;;;;7.48;98.24;100423.53;4997696;28;20038;-87
2021/11/21 03:31:15;;;;;;;29.45;18.23;;;;;;;7.45;98.13;100416.56;4993666;28;20047;-82
2021/11/21 03:33:41;;;;;;;35.92;18.88;;;;;;;7.43;98.47;100413.13;5025075;28;20049;-85
2021/11/21 03:36:13;;;;;;;37.47;20.23;;;;;;;7.47;98.50;100413.09;5006709;28;20049;-85
2021/11/21 03:38:40;;;;;;;33.22;18.73;;;;;;;7.43;98.39;100420.94;5008530;28;20182;-81
2021/11/21 03:41:07;;;;;;;31.77;17.58;;;;;;;7.44;98.43;100413.97;5011648;28;20679;-84
2021/11/21 03:43:33;;;;;;;33.10;18.77;;;;;;;7.41;98.57;100409.63;5013776;28;20069;-82
2021/11/21 03:46:00;;;;;;;34.03;19.17;;;;;;;7.43;98.69;100415.72;5009993;28;20053;-86
2021/11/21 03:48:27;;;;;;;32.83;18.25;;;;;;;7.41;98.58;100406.19;5000483;28;20049;-77
2021/11/21 03:50:53;;;;;;;31.00;17.75;;;;;;;7.40;99.06;100409.63;4999856;28;20049;-85
2021/11/21 03:53:20;;;;;;;32.22;18.05;;;;;;;7.39;99.10;100411.38;4994913;28;20177;-77
2021/11/21 03:55:47;;;;;;;34.92;19.00;;;;;;;7.35;99.44;100407.03;4999042;28;20045;-81
2021/11/21 03:58:15;;;;;;;33.67;17.50;;;;;;;7.39;99.67;100397.47;4990828;28;20104;-81
2021/11/21 04:00:45;;;;;;;33.03;18.67;;;;;;;7.36;99.68;100410.50;4996913;28;20068;-83
2021/11/21 04:03:14;;;;;;;31.88;17.85;;;;;;;7.35;99.81;100401.81;4993751;28;20037;-83
2021/11/21 04:05:41;;;;;;;30.85;17.83;;;;;;;7.37;99.48;100397.47;4995267;28;20041;-79
2021/11/21 04:08:08;;;;;;;33.20;18.00;;;;;;;7.37;99.70;100405.31;4978610;28;20767;-84
2021/11/21 04:10:34;;;;;;;32.50;18.35;;;;;;;7.41;99.65;100403.56;5006242;28;20045;-78
2021/11/21 04:13:02;;;;;;;29.23;17.10;;;;;;;7.44;99.01;100395.75;4996158;28;20042;-83
2021/11/21 04:15:29;;;;;;;33.22;17.20;;;;;;;7.43;99.74;100389.69;4995310;28;20051;-83
2021/11/21 04:17:56;;;;;;;30.75;17.13;;;;;;;7.42;99.54;100390.53;4995460;28;20068;-79
2021/11/21 04:20:22;;;;;;;33.05;18.90;;;;;;;7.42;99.86;100387.94;4999261;28;20139;-81
2021/11/21 04:22:49;;;;;;;31.42;17.00;;;;;;;7.48;99.63;100400.09;4998857;28;20811;-77
2021/11/21 04:25:15;;;;;;;29.23;16.63;;;;;;;7.48;99.20;100394.88;4996636;28;20053;-78
2021/11/21 04:27:43;;;;;;;32.40;18.33;;;;;;;7.47;99.56;100387.94;4988011;28;20625;-82
2021/11/21 04:30:14;;;;;;;30.23;17.45;;;;;;;7.46;99.53;100386.22;4990568;28;20041;-81
2021/11/21 04:32:42;;;;;;;27.67;16.65;;;;;;;7.45;99.65;100374.91;4990464;28;20045;-79
2021/11/21 04:35:13;;;;;;;25.65;15.82;;;;;;;7.45;99.28;100366.25;4977179;28;20053;-82
2021/11/21 04:37:40;;;;;;;28.60;15.40;;;;;;;7.47;99.41;100364.50;4992399;28;20503;-80
2021/11/21 04:40:09;;;;;;;25.00;15.10;;;;;;;7.46;99.52;100367.97;4986950;28;20049;-82
2021/11/21 04:42:36;;;;;;;30.35;16.77;;;;;;;7.46;99.27;100352.34;4977560;28;20139;-83
2021/11/21 04:45:05;;;;;;;29.10;16.45;;;;;;;7.45;99.43;100348.00;4987003;28;20079;-83
2021/11/21 04:47:32;;;;;;;30.38;16.77;;;;;;;7.45;99.60;100348.88;4984839;28;20200;-80
2021/11/21 04:49:58;;;;;;;27.45;16.02;;;;;;;7.46;99.80;100341.94;4989419;28;20184;-83
2021/11/21 04:52:25;;;;;;;30.85;16.33;;;;;;;7.45;99.92;100342.78;4987788;28;20052;-80
2021/11/21 04:54:51;;;;;;;24.88;15.05;;;;;;;7.44;99.71;100339.34;4988557;28;20126;-83
2021/11/21 04:57:19;;;;;;;28.23;14.98;;;;;;;7.43;99.85;100339.31;4977610;28;20052;-80
2021/11/21 04:59:46;;;;;;;28.35;16.60;;;;;;;7.43;100.00;100339.31;5012838;28;20056;-80
2021/11/21 05:02:13;;;;;;;22.83;14.30;;;;;;;7.45;100.00;100332.38;4987892;28;20058;-80
2021/11/21 05:04:39;;;;;;;24.52;15.10;;;;;;;7.43;99.81;100332.38;4986239;28;20049;-84
2021/11/21 05:07:07;;;;;;;22.75;14.48;;;;;;;7.43;99.96;100340.19;4981846;28;20423;-83
2021/11/21 05:09:34;;;;;;;26.52;15.50;;;;;;;7.42;99.74;100340.22;4987251;28;20044;-83
2021/11/21 05:12:11;;;;;;;25.25;14.80;;;;;;;7.39;99.82;100335.88;4988877;28;21351;-79
2021/11/21 05:14:38;;;;;;;28.25;14.80;;;;;;;7.38;100.00;100330.63;4990839;28;20034;-83
2021/11/21 05:17:05;;;;;;;25.77;15.80;;;;;;;7.38;100.00;100334.13;4973485;28;20504;-79
2021/11/21 05:19:31;;;;;;;24.95;15.60;;;;;;;7.42;100.00;100328.03;5002859;28;20045;-80
2021/11/21 05:21:58;;;;;;;25.42;15.43;;;;;;;7.40;100.00;100328.91;4974042;28;20049;-80
2021/11/21 05:24:25;;;;;;;23.20;15.27;;;;;;;7.40;100.00;100326.31;4972179;28;20049;-80
2021/11/21 05:26:52;;;;;;;24.92;15.98;;;;;;;7.38;100.00;100321.09;5001810;28;20489;-84
2021/11/21 05:29:20;;;;;;;25.70;14.45;;;;;;;7.41;100.00;100315.03;4990309;28;20119;-81
2021/11/21 05:31:47;;;;;;;26.25;14.27;;;;;;;7.40;100.00;100316.75;4984600;28;20053;-81
2021/11/21 05:34:14;;;;;;;25.40;14.25;;;;;;;7.41;100.00;100317.63;4990238;28;20115;-79
2021/11/21 05:36:41;;;;;;;23.05;14.68;;;;;;;7.42;100.00;100309.81;4983901;28;20046;-82
2021/11/21 05:39:09;;;;;;;19.52;12.93;;;;;;;7.43;99.91;100306.34;4971100;28;20053;-80
2021/11/21 05:41:41;;;;;;;21.58;14.27;;;;;;;7.45;99.87;100311.53;4969899;28;20440;-85
2021/11/21 05:44:18;;;;;;;22.73;14.07;;;;;;;7.48;99.63;100311.53;4973957;28;20534;-83
2021/11/21 05:46:44;;;;;;;22.15;12.32;;;;;;;7.48;99.62;100313.28;4985999;28;20496;-79
2021/11/21 05:49:11;;;;;;;22.15;13.13;;;;;;;7.49;99.36;100312.41;4970469;28;20074;-80
2021/11/21 05:51:37;;;;;;;23.05;15.13;;;;;;;7.52;99.12;100313.28;4988445;28;20052;-80
2021/11/21 05:54:04;;;;;;;21.90;13.05;;;;;;;7.54;98.89;100319.34;4986719;28;20052;-78
2021/11/21 05:56:31;;;;;;;23.65;13.70;;;;;;;7.55;98.86;100317.63;4987714;28;20507;-79
2021/11/21 05:58:58;;;;;;;17.85;11.82;;;;;;;7.54;99.12;100308.91;5004730;28;20126;-84
2021/11/21 06:01:25;;;;;;;25.50;14.45;;;;;;;7.57;99.38;100314.13;5001770;28;20056;-79
2021/11/21 06:03:53;;;;;;;22.58;14.13;;;;;;;7.52;99.85;100315.88;4987116;28;20052;-84
2021/11/21 06:06:20;;;;;;;25.90;14.73;;;;;;;7.49;100.00;100309.81;4968593;28;20769;-79
2021/11/21 06:08:46;;;;;;;26.65;13.38;;;;;;;7.45;100.00;100314.16;4987961;28;20407;-83
2021/11/21 06:11:13;;;;;;;26.52;14.68;;;;;;;7.39;100.00;100311.53;4982818;28;20049;-79
2021/11/21 06:13:49;;;;;;;25.10;14.35;;;;;;;7.33;100.00;100311.56;4987634;28;20114;-81
2021/11/21 06:16:16;;;;;;;25.90;14.38;;;;;;;7.26;100.00;100302.88;4974726;28;20049;-79
2021/11/21 06:18:43;;;;;;;22.65;13.77;;;;;;;7.24;100.00;100308.09;4981012;28;20512;-79
2021/11/21 06:21:10;;;;;;;23.70;14.32;;;;;;;7.16;100.00;100308.97;4987689;28;20037;-85
2021/11/21 06:23:36;;;;;;;27.92;15.98;;;;;;;7.12;100.00;100316.78;4984881;28;20046;-80
2021/11/21 06:26:05;;;;;;;23.65;14.20;;;;;;;7.10;100.00;100309.84;4985360;28;20052;-82
2021/11/21 06:28:33;;;;;;;24.13;14.48;;;;;;;7.10;100.00;100313.31;4978952;28;20160;-78
2021/11/21 06:31:00;;;;;;;25.10;14.90;;;;;;;7.08;100.00;100316.78;4969675;28;20460;-83
2021/11/21 06:33:27;;;;;;;29.02;15.05;;;;;;;7.09;100.00;100311.59;4964046;28;20041;-80
2021/11/21 06:35:54;;;;;;;28.35;15.10;;;;;;;7.12;100.00;100311.56;4983042;28;20087;-86
2021/11/21 06:38:21;;;;;;;25.45;15.38;;;;;;;7.14;100.00;100313.31;4983955;28;20053;-79
2021/11/21 06:40:49;;;;;;;27.60;15.70;;;;;;;7.09;100.00;100315.91;4982228;28;20072;-80
2021/11/21 06:43:16;;;;;;;27.00;16.08;;;;;;;7.02;100.00;100320.25;4997383;28;20048;-87
2021/11/21 06:45:43;;;;;;;27.63;15.27;;;;;;;6.96;100.00;100312.44;4978092;28;20060;-82
2021/11/21 06:48:12;;;;;;;29.15;16.40;;;;;;;6.91;100.00;100304.63;4987053;28;20047;-78
2021/11/21 06:50:39;;;;;;;25.95;16.33;;;;;;;6.89;100.00;100313.31;4977039;28;20384;-82
2021/11/21 06:53:07;;;;;;;29.55;16.27;;;;;;;6.87;100.00;100304.63;5005998;28;20426;-84
2021/11/21 06:55:34;;;;;;;27.15;17.27;;;;;;;6.88;100.00;100309.84;4994916;28;21034;-81
2021/11/21 06:58:01;;;;;;;29.23;15.88;;;;;;;6.87;100.00;100305.50;4973907;28;20057;-81
2021/11/21 07:00:30;;;;;;;26.35;15.80;;;;;;;6.86;100.00;100300.31;4992179;28;20050;-81
2021/11/21 07:02:57;;;;;;;27.63;14.85;;;;;;;6.89;100.00;100305.50;5013591;28;20284;-82
2021/11/21 07:05:24;;;;;;;28.45;14.85;;;;;;;6.85;100.00;100299.41;4991253;28;20120;-82
2021/11/21 07:07:53;;;;;;;28.70;14.88;;;;;;;6.86;100.00;100302.91;4994109;28;20384;-85
2021/11/21 07:10:20;;;;;;;25.27;14.88;;;;;;;6.87;100.00;100305.50;4997162;28;20041;-85
2021/11/21 07:12:49;;;;;;;24.48;13.85;;;;;;;6.87;100.00;100305.50;4993248;28;20049;-87
2021/11/21 07:15:18;;;;;;;22.70;13.65;;;;;;;6.91;100.00;100314.16;5009228;28;20060;-80
2021/11/21 07:17:48;;;;;;;23.52;13.73;;;;;;;6.93;100.00;100308.09;5010448;28;20049;-91
2021/11/21 07:20:16;;;;;;;20.65;12.82;;;;;;;6.95;100.00;100311.56;5017411;28;20069;-82
2021/11/21 07:22:47;;;;;;;24.33;15.40;;;;;;;7.00;100.00;100315.91;5008821;28;20057;-83
2021/11/21 07:25:15;;;;;;;21.50;11.55;;;;;;;7.04;100.00;100312.44;5007325;28;20066;-84
2021/11/21 07:27:42;;;;;;;17.70;10.98;;;;;;;7.07;100.00;100313.31;5003811;28;20107;-79
2021/11/21 07:30:14;;;;;;;19.15;12.60;;;;;;;7.09;100.00;100318.50;4994545;28;20048;-82
2021/11/21 07:32:45;;;;;;;18.92;10.90;;;;;;;7.13;100.00;100317.63;4996892;28;20504;-78
2021/11/21 07:35:14;;;;;;;15.88;10.02;;;;;;;7.20;100.00;100319.38;5002593;28;20045;-78
2021/11/21 07:37:40;;;;;;;17.60;10.77;;;;;;;7.23;100.00;100314.16;5005912;28;20038;-80
2021/11/21 07:40:12;;;;;;;18.33;9.68;;;;;;;7.25;100.00;100314.19;4995058;28;20137;-77
2021/11/21 07:42:40;;;;;;;15.00;10.00;;;;;;;7.27;100.00;100317.63;4996727;28;20050;-81
2021/11/21 07:45:14;;;;;;;17.98;10.45;;;;;;;7.28;100.00;100325.44;4991006;28;20038;-85
2021/11/21 07:47:42;;;;;;;11.77;8.27;;;;;;;7.32;100.00;100326.31;4992688;28;20132;-79
2021/11/21 07:50:10;;;;;;;12.30;8.63;;;;;;;7.37;100.00;100324.56;4992767;28;20499;-83
2021/11/21 07:52:39;;;;;;;14.77;9.55;;;;;;;7.39;100.00;100329.78;4989428;28;20064;-83
2021/11/21 07:55:06;;;;;;;13.02;8.57;;;;;;;7.45;100.00;100327.16;4978418;28;20387;-85
2021/11/21 07:57:39;;;;;;;15.23;9.23;;;;;;;7.49;100.00;100339.31;4985419;28;20843;-82
2021/11/21 08:00:11;;;;;;;11.20;7.40;;;;;;;7.56;100.00;100329.75;4985457;28;20053;-84
2021/11/21 08:02:38;;;;;;;12.07;7.45;;;;;;;7.58;100.00;100341.03;4985823;28;20058;-79
2021/11/21 08:05:06;;;;;;;10.50;7.25;;;;;;;7.59;100.00;100334.97;4964642;28;20050;-82
2021/11/21 08:07:33;;;;;;;10.60;6.55;;;;;;;7.64;100.00;100335.84;4983160;28;20046;-83
2021/11/21 08:10:01;;;;;;;10.90;7.05;;;;;;;7.69;100.00;100333.19;4978775;28;20050;-80
2021/11/21 08:12:27;;;;;;;9.82;6.93;;;;;;;7.70;100.00;100342.75;5001299;28;20732;-82
2021/11/21 08:14:54;;;;;;;9.18;7.18;;;;;;;7.70;100.00;100345.38;4981234;28;20044;-77
2021/11/21 08:17:21;;;;;;;10.52;6.80;;;;;;;7.74;100.00;100349.69;4981189;28;20179;-83
2021/11/21 08:19:47;;;;;;;11.07;7.00;;;;;;;7.76;100.00;100341.00;4995276;28;20050;-83
2021/11/21 08:22:15;;;;;;;11.00;7.38;;;;;;;7.77;100.00;100344.50;4978504;28;20049;-80
2021/11/21 08:24:41;;;;;;;9.77;6.32;;;;;;;7.81;100.00;100350.53;5004905;28;20041;-82
2021/11/21 08:27:10;;;;;;;10.15;6.78;;;;;;;7.81;100.00;100355.75;4986930;28;20168;-79
2021/11/21 08:29:37;;;;;;;10.35;6.53;;;;;;;7.84;100.00;100351.41;4981213;28;20138;-87
2021/11/21 08:32:07;;;;;;;8.88;6.47;;;;;;;7.86;100.00;100348.78;4993988;28;20077;-77
2021/11/21 08:34:34;;;;;;;11.70;7.35;;;;;;;7.85;100.00;100355.75;5002850;28;20069;-81
2021/11/21 08:37:01;;;;;;;10.77;6.88;;;;;;;7.83;100.00;100357.47;4990253;28;20049;-79
2021/11/21 08:39:28;;;;;;;9.57;6.63;;;;;;;7.81;100.00;100359.25;4982677;28;20514;-82
2021/11/21 08:41:56;;;;;;;12.23;8.13;;;;;;;7.82;100.00;100355.75;4988419;28;20506;-79
2021/11/21 08:44:25;;;;;;;11.43;7.82;;;;;;;7.82;100.00;100367.91;4971222;28;20042;-80
2021/11/21 08:46:52;;;;;;;11.55;8.10;;;;;;;7.83;100.00;100370.50;4987217;28;20057;-81
2021/11/21 08:49:19;;;;;;;12.07;7.85;;;;;;;7.83;100.00;100364.44;4989184;28;20042;-83
2021/11/21 08:51:48;;;;;;;9.73;6.57;;;;;;;7.80;100.00;100377.50;4989566;28;20045;-83
2021/11/21 08:54:16;;;;;;;13.85;7.55;;;;;;;7.71;100.00;100371.41;4978481;28;20447;-79
2021/11/21 08:56:47;;;;;;;11.93;7.32;;;;;;;7.66;100.00;100375.75;4982190;28;20037;-86
2021/11/21 08:59:15;;;;;;;12.98;8.00;;;;;;;7.59;100.00;100380.13;4986961;28;20561;-85
2021/11/21 09:01:43;;;;;;;14.35;8.30;;;;;;;7.53;100.00;100377.50;4983226;28;20072;-85
2021/11/21 09:04:13;;;;;;;10.85;6.97;;;;;;;7.52;100.00;100381.00;4971870;28;20061;-84
2021/11/21 09:06:41;;;;;;;18.30;8.13;;;;;;;7.50;100.00;100387.09;4991277;28;20132;-84
2021/11/21 09:09:08;;;;;;;15.35;8.65;;;;;;;7.47;100.00;100382.75;4981321;28;20059;-86
2021/11/21 09:11:35;;;;;;;11.18;7.13;;;;;;;7.42;100.00;100382.72;4984708;28;20045;-86
2021/11/21 09:14:07;;;;;;;9.68;5.63;;;;;;;7.41;100.00;100381.00;4979843;28;20045;-83
2021/11/21 09:16:34;;;;;;;8.95;6.03;;;;;;;7.43;100.00;100383.59;5002757;28;20060;-83
2021/11/21 09:19:02;;;;;;;10.02;6.85;;;;;;;7.44;100.00;100377.50;4986472;28;20206;-85
2021/11/21 09:21:28;;;;;;;8.35;5.15;;;;;;;7.44;100.00;100370.59;4984282;28;20053;-86
2021/11/21 09:23:55;;;;;;;6.10;3.80;;;;;;;7.45;100.00;100368.84;5003899;28;20057;-81
2021/11/21 09:26:22;;;;;;;6.20;3.58;;;;;;;7.47;100.00;100371.44;4966272;28;20551;-86
2021/11/21 09:28:49;;;;;;;5.75;2.85;;;;;;;7.46;100.00;100370.59;4987473;28;20050;-80
2021/11/21 09:31:15;;;;;;;4.63;2.75;;;;;;;7.49;100.00;100377.53;4983218;28;20904;-81
2021/11/21 09:33:42;;;;;;;2.85;1.80;;;;;;;7.52;100.00;100380.13;4987921;28;20041;-82
2021/11/21 09:36:10;;;;;;;3.75;2.53;;;;;;;7.53;100.00;100377.50;4973989;28;20053;-82
2021/11/21 09:38:37;;;;;;;6.32;2.90;;;;;;;7.54;100.00;100381.84;4992514;28;20508;-83
2021/11/21 09:41:05;;;;;;;10.00;4.57;;;;;;;7.53;100.00;100374.03;4975198;28;20172;-82
2021/11/21 09:43:32;;;;;;;7.03;4.70;;;;;;;7.54;100.00;100388.81;4984161;28;20045;-81
2021/11/21 09:46:01;;;;;;;7.85;5.35;;;;;;;7.59;100.00;100382.72;4984039;28;20045;-80
2021/11/21 09:48:32;;;;;;;7.90;5.90;;;;;;;7.68;100.00;100381.84;4974601;28;20072;-87
2021/11/21 09:51:01;;;;;;;11.27;6.47;;;;;;;7.78;100.00;100378.34;4979295;28;20041;-80
2021/11/21 09:53:30;;;;;;;9.57;7.32;;;;;;;7.86;100.00;100373.13;4988803;28;20045;-81
2021/11/21 09:55:58;;;;;;;11.98;6.45;;;;;;;7.97;100.00;100374.84;4983456;28;20057;-87
2021/11/21 09:58:26;;;;;;;10.05;6.80;;;;;;;8.08;100.00;100367.84;4984682;28;20046;-83
2021/11/21 10:00:55;;;;;;;10.63;7.03;;;;;;;8.15;100.00;100368.69;4978109;28;20046;-81
2021/11/21 10:03:23;;;;;;;9.27;6.20;;;;;;;8.20;100.00;100362.59;5005881;28;20507;-81
2021/11/21 10:05:57;;;;;;;10.55;7.70;;;;;;;8.22;100.00;100360.84;4992177;28;20120;-86
2021/11/21 10:08:29;;;;;;;13.27;7.55;;;;;;;8.29;100.00;100366.88;4979367;28;20543;-84
2021/11/21 10:11:08;;;;;;;9.05;6.60;;;;;;;8.34;100.00;100354.69;4967471;28;20049;-82
2021/11/21 10:13:48;;;;;;;10.82;5.70;;;;;;;8.42;100.00;100365.09;5013459;28;20028;-87
2021/11/21 10:16:19;;;;;;;9.40;6.70;;;;;;;8.49;100.00;100358.16;5007537;28;20049;-82
2021/11/21 10:18:54;;;;;;;9.32;6.40;;;;;;;8.52;100.00;100360.75;4999182;28;20128;-82
2021/11/21 10:21:39;;;;;;;8.02;5.40;;;;;;;8.54;100.00;100353.75;5006031;28;20128;-83
2021/11/21 10:24:24;;;;;;;10.95;7.00;;;;;;;8.56;100.00;100350.25;4999261;28;20108;-86
2021/11/21 10:27:16;;;;;;;13.52;6.75;;;;;;;8.60;100.00;100356.34;4984329;28;20075;-79
2021/11/21 10:29:47;;;;;;;9.90;6.30;;;;;;;8.66;100.00;100356.31;4992539;28;20056;-85
2021/11/21 10:32:31;;;;;;;10.73;6.60;;;;;;;8.67;100.00;100352.84;4967718;28;20056;-84
2021/11/21 10:35:15;;;;;;;9.77;6.30;;;;;;;8.64;100.00;100355.44;4992399;28;20056;-81
2021/11/21 10:37:42;;;;;;;10.23;6.85;;;;;;;8.65;100.00;100349.34;4989495;28;20103;-84
2021/11/21 10:40:13;;;;;;;9.63;6.07;;;;;;;8.69;100.00;100355.44;4992582;28;20045;-81
2021/11/21 10:42:45;;;;;;;12.85;6.95;;;;;;;8.71;100.00;100361.53;4988954;28;20037;-81
2021/11/21 10:45:15;;;;;;;10.77;7.00;;;;;;;8.72;100.00;100355.41;4974800;28;20861;-80
2021/11/21 10:47:51;;;;;;;14.60;7.20;;;;;;;8.70;100.00;100344.97;4972727;28;20491;-80
2021/11/21 10:50:35;;;;;;;;;;;;;;;8.66;100.00;100351.09;4978303;28;20084;-82
2021/11/21 10:53:08;;;;;;;12.80;6.63;;;;;;;8.61;100.00;100348.50;4995576;28;20024;-85
2021/11/21 10:55:36;;;;;;;8.38;5.32;;;;;;;8.67;100.00;100351.94;4985623;28;20187;-79
2021/11/21 10:58:15;;;;;;;8.20;5.45;;;;;;;8.71;100.00;100345.88;4989884;28;20049;-83
2021/11/21 11:00:45;;;;;;;11.93;6.60;;;;;;;8.74;100.00;100349.28;4992175;28;20318;-83
2021/11/21 11:03:20;;;;;;;8.50;6.75;;;;;;;8.77;100.00;100348.41;5003551;28;20045;-83
2021/11/21 11:05:47;;;;;;;12.80;7.32;;;;;;;8.79;100.00;100341.44;5003651;28;20042;-82
2021/11/21 11:08:26;;;;;;;9.65;5.68;;;;;;;8.88;100.00;100349.22;5005503;28;20310;-83
2021/11/21 11:10:54;;;;;;;7.75;5.80;;;;;;;9.02;100.00;100348.25;5023477;28;20444;-88
2021/11/21 11:13:23;;;;;;;12.02;6.30;;;;;;;9.17;100.00;100352.50;5001349;28;21163;-88
2021/11/21 11:15:51;;;;;;;9.90;6.88;;;;;;;9.32;100.00;100344.53;5010090;28;20045;-87
2021/11/21 11:18:20;;;;;;;10.95;6.32;;;;;;;9.43;100.00;100352.25;5005940;28;20045;-86
2021/11/21 11:20:51;;;;;;;11.63;5.57;;;;;;;9.45;100.00;100350.47;4984597;28;20156;-85
2021/11/21 11:23:20;;;;;;;11.20;6.95;;;;;;;9.49;100.00;100354.81;4976415;28;20731;-79